NTAANFFN

Guest
Details From NTAA - Faaa
To NFFN - Nadi Intl
Flight Number -
Tags Generated
Created
Modified
Stats Distance 1,886 nm / 3,492 km
Max Altitude 0 ft / 0 m
Waypoints 3
Social Downloads 5
Likes 0
Share VATSIM

Download

Looking for another format? Having issues loading an existing format? Contact us
Advertisement - Login to hide

Notes

Generated

Route

NTAA VK NFFN

ID Type Via Altitude Latitude Longitude Leg Dist Tot Dist Heading (true) Name
O NTAA APT - 0 ft / 0 m -17.56288˚ -149.62043˚ - 0 nm - -
VK NDB - 0 ft / 0 m -17.78472˚ 177.41944˚ 1883 nm 1883 nm 264° / 275° NAVAKAI NDB
O NFFN APT - 0 ft / 0 m -17.75352˚ 177.43591˚ 2 nm 1885 nm 27° / 27° -

Altitude Profile

Advertisement - Login to hide

Weather


0- 5 10 15 20 25 30 35+ Temperature / ° C

Clouds and Precipitation
Forecast for 2017-12-15 06:00 UTC. Updated an hour ago

Ground ~20,000 ft ~40,000 ft Winds

NTAA

Details ICAO NTAA (PPT)
Name Faaa
Region French Polynesia
Timezone Pacific/Tahiti (UTC-10.0)
Stats Elevation 5 ft / 2 m (AMSL)
Location -17.553765° -149.607255°
Runways 1
Magnetic Variation 12.875° E

METAR

NTAA 150630Z 09007KT 9999 FEW020 BKN260 27/23 Q1008 TEMPO 02020G30KT 3000 SHRA SCT016 BKN040

Decode

TAF

TAF NTAA 142300Z 1500/1606 06015KT 9999 FEW020 BKN230 PROB30 TEMPO 1500/1512 3000 SHRA FEW013CB BKN035 BKN100

Decode

Departure Runways

ID Width Length Bearing (true) Bearing (mag) Surface Threshold Offset Overrun Length
04 148 ft / 45 m 11,323 ft / 3,451 m 54.04° 41.16° Asphalt 1,099 ft / 335 m 0 ft / 0 m
22 148 ft / 45 m 11,323 ft / 3,451 m 234.03° 221.15° Asphalt 479 ft / 146 m 0 ft / 0 m

NFFN

Details ICAO NFFN (NAN)
Name Nadi Intl
Region Fiji and Tonga
Timezone Pacific/Fiji (UTC+13.0)
Stats Elevation 59 ft / 18 m (AMSL)
Location -17.758366° 177.442147°
Runways 2
Magnetic Variation 12.400° E

METAR

NFFN 150600Z 10005KT 9999 FEW005 SCT020 OVC100 24/24 Q1007 NOSIG

Decode

TAF

TAF NFFN 150529Z 1506/1606 02008KT 9000 SCT023 BKN045 BKN100 TEMPO 1506/1515 5000 SHRA BKN015 PROB40 TEMPO 1512/1521 5000 SHRA BKN015 TEMPO 1600/1606 3000 SHRA BKN015 BECMG 1521/1523 28010KT

Decode

Destination Runways

ID Width Length Bearing (true) Bearing (mag) Surface Threshold Offset Overrun Length
02 151 ft / 46 m 10,529 ft / 3,209 m 37.50° 25.10° Asphalt 0 ft / 0 m 0 ft / 0 m
09 151 ft / 46 m 6,989 ft / 2,130 m 104.20° 91.80° Asphalt 0 ft / 0 m 95 ft / 29 m
20 151 ft / 46 m 10,529 ft / 3,209 m 217.50° 205.10° Asphalt 0 ft / 0 m 0 ft / 0 m
27 151 ft / 46 m 6,989 ft / 2,130 m 284.20° 271.80° Asphalt 0 ft / 0 m 0 ft / 0 m

Approach Navaids

Runway Type Ident Frequency Range Bearing (true) Bearing (mag) Slope Elevation
02 Localiser INN 109.90 MHz 18 nm / 33 km 37.49° 25.09° - 41 ft / 12 m (AMSL)
02 Glidescope INN 109.90 MHz 10 nm / 19 km 37.50° 25.10° 3.00° 59 ft / 18 m (AMSL)

Popular Alternatives